sensor_id;sensor_type;location;lat;lon;timestamp;P1;durP1;ratioP1;P2;durP2;ratioP2
2824;SDS011;1420;51.324;12.344;2022-08-04T00:00:17;16.80;;;14.84;;
2824;SDS011;1420;51.324;12.344;2022-08-04T00:05:22;20.90;;;18.74;;
2824;SDS011;1420;51.324;12.344;2022-08-04T00:08:00;23.24;;;19.84;;
2824;SDS011;1420;51.324;12.344;2022-08-04T00:10:30;18.34;;;16.48;;
2824;SDS011;1420;51.324;12.344;2022-08-04T00:12:58;17.20;;;15.16;;
2824;SDS011;1420;51.324;12.344;2022-08-04T00:15:25;17.74;;;15.60;;
2824;SDS011;1420;51.324;12.344;2022-08-04T00:17:54;15.70;;;12.88;;
2824;SDS011;1420;51.324;12.344;2022-08-04T00:20:20;16.54;;;12.92;;
2824;SDS011;1420;51.324;12.344;2022-08-04T00:22:47;18.04;;;16.18;;
2824;SDS011;1420;51.324;12.344;2022-08-04T00:25:15;19.90;;;17.60;;
2824;SDS011;1420;51.324;12.344;2022-08-04T00:27:42;16.78;;;11.34;;
2824;SDS011;1420;51.324;12.344;2022-08-04T00:30:09;18.48;;;15.22;;
2824;SDS011;1420;51.324;12.344;2022-08-04T00:32:38;16.74;;;14.78;;
2824;SDS011;1420;51.324;12.344;2022-08-04T00:35:04;20.28;;;18.36;;
2824;SDS011;1420;51.324;12.344;2022-08-04T00:37:32;16.20;;;14.52;;
2824;SDS011;1420;51.324;12.344;2022-08-04T00:40:00;14.68;;;12.60;;
2824;SDS011;1420;51.324;12.344;2022-08-04T00:42:32;21.82;;;19.78;;
2824;SDS011;1420;51.324;12.344;2022-08-04T00:45:05;16.64;;;12.86;;
2824;SDS011;1420;51.324;12.344;2022-08-04T00:48:20;22.68;;;20.48;;
2824;SDS011;1420;51.324;12.344;2022-08-04T00:50:32;16.98;;;14.34;;
2824;SDS011;1420;51.324;12.344;2022-08-04T00:55:46;15.92;;;14.22;;
2824;SDS011;1420;51.324;12.344;2022-08-04T00:58:22;13.86;;;10.42;;
2824;SDS011;1420;51.324;12.344;2022-08-04T01:00:57;18.04;;;14.94;;
2824;SDS011;1420;51.324;12.344;2022-08-04T01:03:33;20.24;;;18.28;;
2824;SDS011;1420;51.324;12.344;2022-08-04T01:06:15;14.06;;;10.22;;
2824;SDS011;1420;51.324;12.344;2022-08-04T01:08:56;14.72;;;11.00;;
2824;SDS011;1420;51.324;12.344;2022-08-04T01:11:35;17.62;;;15.36;;
2824;SDS011;1420;51.324;12.344;2022-08-04T01:14:09;16.40;;;13.64;;
2824;SDS011;1420;51.324;12.344;2022-08-04T01:16:51;21.10;;;19.30;;
2824;SDS011;1420;51.324;12.344;2022-08-04T01:19:05;21.30;;;19.28;;
2824;SDS011;1420;51.324;12.344;2022-08-04T01:21:41;18.12;;;16.28;;
2824;SDS011;1420;51.324;12.344;2022-08-04T01:24:44;20.98;;;18.88;;
2824;SDS011;1420;51.324;12.344;2022-08-04T01:29:37;15.92;;;12.62;;
2824;SDS011;1420;51.324;12.344;2022-08-04T01:32:04;19.62;;;15.98;;
2824;SDS011;1420;51.324;12.344;2022-08-04T01:34:35;16.54;;;11.38;;
2824;SDS011;1420;51.324;12.344;2022-08-04T01:37:07;20.64;;;18.64;;
2824;SDS011;1420;51.324;12.344;2022-08-04T01:39:34;17.90;;;15.82;;
2824;SDS011;1420;51.324;12.344;2022-08-04T01:42:06;15.80;;;13.08;;
2824;SDS011;1420;51.324;12.344;2022-08-04T01:44:34;19.74;;;17.94;;
2824;SDS011;1420;51.324;12.344;2022-08-04T01:47:00;21.80;;;18.68;;
2824;SDS011;1420;51.324;12.344;2022-08-04T01:49:28;14.46;;;12.74;;
2824;SDS011;1420;51.324;12.344;2022-08-04T01:51:55;14.42;;;12.60;;
2824;SDS011;1420;51.324;12.344;2022-08-04T01:54:22;16.54;;;11.04;;
2824;SDS011;1420;51.324;12.344;2022-08-04T01:56:50;17.02;;;15.32;;
2824;SDS011;1420;51.324;12.344;2022-08-04T01:59:18;22.80;;;20.90;;
2824;SDS011;1420;51.324;12.344;2022-08-04T02:01:46;19.14;;;17.44;;
2824;SDS011;1420;51.324;12.344;2022-08-04T02:04:13;18.32;;;15.52;;
2824;SDS011;1420;51.324;12.344;2022-08-04T02:06:47;23.96;;;22.04;;
2824;SDS011;1420;51.324;12.344;2022-08-04T02:09:22;17.54;;;15.86;;
2824;SDS011;1420;51.324;12.344;2022-08-04T02:12:01;14.88;;;13.34;;
2824;SDS011;1420;51.324;12.344;2022-08-04T02:14:29;15.24;;;13.46;;
2824;SDS011;1420;51.324;12.344;2022-08-04T02:17:01;13.08;;;8.88;;
2824;SDS011;1420;51.324;12.344;2022-08-04T02:19:34;14.00;;;12.54;;
2824;SDS011;1420;51.324;12.344;2022-08-04T02:22:06;14.90;;;11.82;;
2824;SDS011;1420;51.324;12.344;2022-08-04T02:24:32;13.78;;;9.62;;
2824;SDS011;1420;51.324;12.344;2022-08-04T02:27:00;12.90;;;9.22;;
2824;SDS011;1420;51.324;12.344;2022-08-04T02:29:34;19.10;;;15.38;;
2824;SDS011;1420;51.324;12.344;2022-08-04T02:32:03;16.40;;;14.72;;
2824;SDS011;1420;51.324;12.344;2022-08-04T02:34:31;16.38;;;14.70;;
2824;SDS011;1420;51.324;12.344;2022-08-04T02:37:14;11.98;;;6.82;;
2824;SDS011;1420;51.324;12.344;2022-08-04T02:39:43;15.90;;;14.30;;
2824;SDS011;1420;51.324;12.344;2022-08-04T02:42:10;11.42;;;9.00;;
2824;SDS011;1420;51.324;12.344;2022-08-04T02:44:38;13.36;;;9.98;;
2824;SDS011;1420;51.324;12.344;2022-08-04T02:47:05;13.40;;;10.64;;
2824;SDS011;1420;51.324;12.344;2022-08-04T02:49:34;15.54;;;13.94;;
2824;SDS011;1420;51.324;12.344;2022-08-04T02:52:01;14.34;;;12.10;;
2824;SDS011;1420;51.324;12.344;2022-08-04T02:54:32;13.54;;;9.80;;
2824;SDS011;1420;51.324;12.344;2022-08-04T02:56:57;14.62;;;9.26;;
2824;SDS011;1420;51.324;12.344;2022-08-04T02:59:25;11.88;;;8.88;;
2824;SDS011;1420;51.324;12.344;2022-08-04T03:01:54;12.32;;;7.12;;
2824;SDS011;1420;51.324;12.344;2022-08-04T03:04:59;14.14;;;11.18;;
2824;SDS011;1420;51.324;12.344;2022-08-04T03:07:37;17.28;;;12.82;;
2824;SDS011;1420;51.324;12.344;2022-08-04T03:13:19;14.42;;;8.48;;
2824;SDS011;1420;51.324;12.344;2022-08-04T03:15:34;14.20;;;12.00;;
2824;SDS011;1420;51.324;12.344;2022-08-04T03:18:47;13.60;;;10.62;;
2824;SDS011;1420;51.324;12.344;2022-08-04T03:21:14;15.90;;;14.30;;
2824;SDS011;1420;51.324;12.344;2022-08-04T03:29:25;17.18;;;11.92;;
2824;SDS011;1420;51.324;12.344;2022-08-04T03:31:59;18.18;;;16.36;;
2824;SDS011;1420;51.324;12.344;2022-08-04T03:40:05;14.68;;;11.16;;
2824;SDS011;1420;51.324;12.344;2022-08-04T03:42:38;16.30;;;11.44;;
2824;SDS011;1420;51.324;12.344;2022-08-04T03:48:21;13.12;;;10.46;;
2824;SDS011;1420;51.324;12.344;2022-08-04T03:53:32;15.58;;;13.74;;
2824;SDS011;1420;51.324;12.344;2022-08-04T03:58:52;13.10;;;9.64;;
2824;SDS011;1420;51.324;12.344;2022-08-04T04:04:32;12.34;;;8.78;;
2824;SDS011;1420;51.324;12.344;2022-08-04T04:07:10;12.14;;;7.32;;
2824;SDS011;1420;51.324;12.344;2022-08-04T04:12:59;13.08;;;10.88;;
2824;SDS011;1420;51.324;12.344;2022-08-04T04:17:51;15.30;;;13.56;;
2824;SDS011;1420;51.324;12.344;2022-08-04T04:20:39;15.36;;;9.72;;
2824;SDS011;1420;51.324;12.344;2022-08-04T04:25:54;14.22;;;12.72;;
2824;SDS011;1420;51.324;12.344;2022-08-04T04:31:33;14.42;;;11.22;;
2824;SDS011;1420;51.324;12.344;2022-08-04T04:33:57;14.78;;;9.74;;
2824;SDS011;1420;51.324;12.344;2022-08-04T04:37:00;11.54;;;6.30;;
2824;SDS011;1420;51.324;12.344;2022-08-04T04:39:30;13.64;;;7.64;;
2824;SDS011;1420;51.324;12.344;2022-08-04T04:44:46;12.06;;;5.62;;
2824;SDS011;1420;51.324;12.344;2022-08-04T04:47:22;13.00;;;7.12;;
2824;SDS011;1420;51.324;12.344;2022-08-04T04:49:56;13.24;;;8.00;;
2824;SDS011;1420;51.324;12.344;2022-08-04T04:52:23;12.28;;;6.80;;
2824;SDS011;1420;51.324;12.344;2022-08-04T04:57:22;11.36;;;5.74;;
2824;SDS011;1420;51.324;12.344;2022-08-04T04:59:51;11.28;;;6.86;;
2824;SDS011;1420;51.324;12.344;2022-08-04T05:02:31;12.16;;;5.92;;
2824;SDS011;1420;51.324;12.344;2022-08-04T05:05:02;11.10;;;7.38;;
2824;SDS011;1420;51.324;12.344;2022-08-04T05:08:04;15.46;;;10.70;;
2824;SDS011;1420;51.324;12.344;2022-08-04T05:10:38;12.30;;;5.32;;
2824;SDS011;1420;51.324;12.344;2022-08-04T05:13:24;14.46;;;5.70;;
2824;SDS011;1420;51.324;12.344;2022-08-04T05:15:48;11.52;;;6.08;;
2824;SDS011;1420;51.324;12.344;2022-08-04T05:18:15;12.32;;;7.92;;
2824;SDS011;1420;51.324;12.344;2022-08-04T05:20:43;11.78;;;5.82;;
2824;SDS011;1420;51.324;12.344;2022-08-04T05:23:12;11.76;;;6.12;;
2824;SDS011;1420;51.324;12.344;2022-08-04T05:25:50;11.00;;;5.00;;
2824;SDS011;1420;51.324;12.344;2022-08-04T05:28:19;10.96;;;5.64;;
2824;SDS011;1420;51.324;12.344;2022-08-04T05:30:46;12.28;;;6.50;;
2824;SDS011;1420;51.324;12.344;2022-08-04T05:33:18;11.80;;;6.50;;
2824;SDS011;1420;51.324;12.344;2022-08-04T05:35:43;14.88;;;4.72;;
2824;SDS011;1420;51.324;12.344;2022-08-04T05:38:11;12.16;;;4.38;;
2824;SDS011;1420;51.324;12.344;2022-08-04T05:40:38;10.76;;;4.46;;
2824;SDS011;1420;51.324;12.344;2022-08-04T05:43:06;10.06;;;4.88;;
2824;SDS011;1420;51.324;12.344;2022-08-04T05:45:33;12.54;;;4.50;;
2824;SDS011;1420;51.324;12.344;2022-08-04T05:48:01;12.62;;;5.38;;
2824;SDS011;1420;51.324;12.344;2022-08-04T05:50:29;10.74;;;5.20;;
2824;SDS011;1420;51.324;12.344;2022-08-04T05:52:56;11.66;;;5.30;;
2824;SDS011;1420;51.324;12.344;2022-08-04T05:55:23;11.82;;;5.14;;
2824;SDS011;1420;51.324;12.344;2022-08-04T05:57:50;14.18;;;4.66;;
2824;SDS011;1420;51.324;12.344;2022-08-04T06:00:18;11.76;;;6.30;;
2824;SDS011;1420;51.324;12.344;2022-08-04T06:02:46;12.72;;;7.04;;
2824;SDS011;1420;51.324;12.344;2022-08-04T06:05:13;12.48;;;4.42;;
2824;SDS011;1420;51.324;12.344;2022-08-04T06:07:40;14.50;;;7.10;;
2824;SDS011;1420;51.324;12.344;2022-08-04T06:10:08;11.90;;;5.12;;
2824;SDS011;1420;51.324;12.344;2022-08-04T06:12:37;13.74;;;6.18;;
2824;SDS011;1420;51.324;12.344;2022-08-04T06:15:04;13.94;;;6.84;;
2824;SDS011;1420;51.324;12.344;2022-08-04T06:17:32;15.28;;;10.76;;
2824;SDS011;1420;51.324;12.344;2022-08-04T06:20:00;13.54;;;6.92;;
2824;SDS011;1420;51.324;12.344;2022-08-04T06:22:26;14.56;;;7.30;;
2824;SDS011;1420;51.324;12.344;2022-08-04T06:24:54;14.22;;;6.54;;
2824;SDS011;1420;51.324;12.344;2022-08-04T06:27:21;17.88;;;9.72;;
2824;SDS011;1420;51.324;12.344;2022-08-04T06:29:48;16.68;;;8.24;;
2824;SDS011;1420;51.324;12.344;2022-08-04T06:32:15;15.70;;;8.26;;
2824;SDS011;1420;51.324;12.344;2022-08-04T06:34:48;16.22;;;10.74;;
2824;SDS011;1420;51.324;12.344;2022-08-04T06:37:16;14.24;;;6.88;;
2824;SDS011;1420;51.324;12.344;2022-08-04T06:39:44;16.86;;;10.82;;
2824;SDS011;1420;51.324;12.344;2022-08-04T06:42:11;15.94;;;6.92;;
2824;SDS011;1420;51.324;12.344;2022-08-04T06:44:39;13.88;;;6.06;;
2824;SDS011;1420;51.324;12.344;2022-08-04T06:47:07;14.24;;;6.18;;
2824;SDS011;1420;51.324;12.344;2022-08-04T06:49:34;14.44;;;6.52;;
2824;SDS011;1420;51.324;12.344;2022-08-04T06:52:02;12.72;;;5.20;;
2824;SDS011;1420;51.324;12.344;2022-08-04T06:54:29;13.76;;;5.10;;
2824;SDS011;1420;51.324;12.344;2022-08-04T06:56:56;12.98;;;4.62;;
2824;SDS011;1420;51.324;12.344;2022-08-04T06:59:24;12.28;;;4.52;;
2824;SDS011;1420;51.324;12.344;2022-08-04T07:01:51;15.94;;;5.04;;
2824;SDS011;1420;51.324;12.344;2022-08-04T07:04:19;12.20;;;4.22;;
2824;SDS011;1420;51.324;12.344;2022-08-04T07:06:47;13.76;;;5.20;;
2824;SDS011;1420;51.324;12.344;2022-08-04T07:09:15;13.10;;;4.72;;
2824;SDS011;1420;51.324;12.344;2022-08-04T07:11:43;13.40;;;4.76;;
2824;SDS011;1420;51.324;12.344;2022-08-04T07:14:11;13.52;;;4.18;;
2824;SDS011;1420;51.324;12.344;2022-08-04T07:16:39;13.12;;;4.98;;
2824;SDS011;1420;51.324;12.344;2022-08-04T07:19:06;12.86;;;4.24;;
2824;SDS011;1420;51.324;12.344;2022-08-04T07:21:33;15.66;;;5.52;;
2824;SDS011;1420;51.324;12.344;2022-08-04T07:24:01;13.66;;;3.98;;
2824;SDS011;1420;51.324;12.344;2022-08-04T07:26:28;13.42;;;4.10;;
2824;SDS011;1420;51.324;12.344;2022-08-04T07:28:55;15.02;;;4.86;;
2824;SDS011;1420;51.324;12.344;2022-08-04T07:31:23;15.78;;;6.94;;
2824;SDS011;1420;51.324;12.344;2022-08-04T07:33:51;17.74;;;9.60;;
2824;SDS011;1420;51.324;12.344;2022-08-04T07:36:18;18.62;;;12.42;;
2824;SDS011;1420;51.324;12.344;2022-08-04T07:38:46;18.48;;;9.12;;
2824;SDS011;1420;51.324;12.344;2022-08-04T07:41:14;20.02;;;13.60;;
2824;SDS011;1420;51.324;12.344;2022-08-04T07:43:40;19.34;;;11.06;;
2824;SDS011;1420;51.324;12.344;2022-08-04T07:46:08;18.80;;;14.48;;
2824;SDS011;1420;51.324;12.344;2022-08-04T07:48:35;19.18;;;10.72;;
2824;SDS011;1420;51.324;12.344;2022-08-04T07:51:02;16.94;;;8.62;;
2824;SDS011;1420;51.324;12.344;2022-08-04T07:53:29;23.94;;;21.56;;
2824;SDS011;1420;51.324;12.344;2022-08-04T07:55:56;18.26;;;12.76;;
2824;SDS011;1420;51.324;12.344;2022-08-04T07:58:24;21.04;;;15.48;;
2824;SDS011;1420;51.324;12.344;2022-08-04T08:00:51;26.50;;;23.90;;
2824;SDS011;1420;51.324;12.344;2022-08-04T08:03:19;17.48;;;9.32;;
2824;SDS011;1420;51.324;12.344;2022-08-04T08:05:47;22.68;;;20.24;;
2824;SDS011;1420;51.324;12.344;2022-08-04T08:08:15;21.46;;;19.00;;
2824;SDS011;1420;51.324;12.344;2022-08-04T08:10:44;18.92;;;11.52;;
2824;SDS011;1420;51.324;12.344;2022-08-04T08:15:51;21.68;;;11.52;;
2824;SDS011;1420;51.324;12.344;2022-08-04T08:18:18;18.62;;;10.04;;
2824;SDS011;1420;51.324;12.344;2022-08-04T08:20:46;18.82;;;10.30;;
2824;SDS011;1420;51.324;12.344;2022-08-04T08:23:13;19.10;;;12.98;;
2824;SDS011;1420;51.324;12.344;2022-08-04T08:25:40;19.16;;;10.00;;
2824;SDS011;1420;51.324;12.344;2022-08-04T08:28:07;19.82;;;13.00;;
2824;SDS011;1420;51.324;12.344;2022-08-04T08:30:35;21.08;;;14.58;;
2824;SDS011;1420;51.324;12.344;2022-08-04T08:33:04;20.34;;;12.34;;
2824;SDS011;1420;51.324;12.344;2022-08-04T08:35:34;20.64;;;12.42;;
2824;SDS011;1420;51.324;12.344;2022-08-04T08:38:11;19.28;;;11.46;;
2824;SDS011;1420;51.324;12.344;2022-08-04T08:40:43;24.86;;;22.10;;
2824;SDS011;1420;51.324;12.344;2022-08-04T08:43:15;25.36;;;22.66;;
2824;SDS011;1420;51.324;12.344;2022-08-04T08:48:27;20.88;;;15.40;;
2824;SDS011;1420;51.324;12.344;2022-08-04T08:52:03;25.92;;;23.34;;
2824;SDS011;1420;51.324;12.344;2022-08-04T08:54:18;24.44;;;16.80;;
2824;SDS011;1420;51.324;12.344;2022-08-04T08:56:28;19.96;;;11.20;;
2824;SDS011;1420;51.324;12.344;2022-08-04T08:59:02;36.42;;;33.30;;
2824;SDS011;1420;51.324;12.344;2022-08-04T09:01:31;20.54;;;12.90;;
2824;SDS011;1420;51.324;12.344;2022-08-04T09:04:06;20.44;;;9.48;;
2824;SDS011;1420;51.324;12.344;2022-08-04T09:06:53;18.36;;;8.74;;
2824;SDS011;1420;51.324;12.344;2022-08-04T09:09:33;18.40;;;9.12;;
2824;SDS011;1420;51.324;12.344;2022-08-04T09:14:54;35.20;;;32.22;;
2824;SDS011;1420;51.324;12.344;2022-08-04T09:17:22;30.02;;;27.12;;
2824;SDS011;1420;51.324;12.344;2022-08-04T09:19:50;46.32;;;42.70;;
2824;SDS011;1420;51.324;12.344;2022-08-04T09:22:24;39.10;;;36.04;;
2824;SDS011;1420;51.324;12.344;2022-08-04T09:24:57;30.24;;;27.30;;
2824;SDS011;1420;51.324;12.344;2022-08-04T09:30:10;25.38;;;22.92;;
2824;SDS011;1420;51.324;12.344;2022-08-04T09:32:41;41.34;;;38.02;;
2824;SDS011;1420;51.324;12.344;2022-08-04T09:43:35;30.24;;;27.00;;
2824;SDS011;1420;51.324;12.344;2022-08-04T09:46:05;28.22;;;25.52;;
2824;SDS011;1420;51.324;12.344;2022-08-04T09:48:34;26.80;;;24.12;;
2824;SDS011;1420;51.324;12.344;2022-08-04T09:51:01;28.16;;;25.56;;
2824;SDS011;1420;51.324;12.344;2022-08-04T09:53:33;25.30;;;22.60;;
2824;SDS011;1420;51.324;12.344;2022-08-04T09:56:08;26.62;;;24.02;;
2824;SDS011;1420;51.324;12.344;2022-08-04T09:58:39;28.82;;;26.20;;
2824;SDS011;1420;51.324;12.344;2022-08-04T10:01:15;26.60;;;24.08;;
2824;SDS011;1420;51.324;12.344;2022-08-04T10:03:43;22.10;;;19.74;;
2824;SDS011;1420;51.324;12.344;2022-08-04T10:11:51;23.66;;;21.16;;
2824;SDS011;1420;51.324;12.344;2022-08-04T10:14:50;39.68;;;36.40;;
2824;SDS011;1420;51.324;12.344;2022-08-04T10:17:11;37.02;;;33.84;;
2824;SDS011;1420;51.324;12.344;2022-08-04T10:19:37;34.60;;;31.38;;
2824;SDS011;1420;51.324;12.344;2022-08-04T10:22:14;33.50;;;30.20;;
2824;SDS011;1420;51.324;12.344;2022-08-04T10:24:52;24.56;;;19.90;;
2824;SDS011;1420;51.324;12.344;2022-08-04T10:27:29;23.18;;;20.68;;
2824;SDS011;1420;51.324;12.344;2022-08-04T10:30:01;27.54;;;24.74;;
2824;SDS011;1420;51.324;12.344;2022-08-04T10:32:32;25.18;;;22.58;;
2824;SDS011;1420;51.324;12.344;2022-08-04T10:35:04;38.06;;;34.76;;
2824;SDS011;1420;51.324;12.344;2022-08-04T10:37:47;34.28;;;31.16;;
2824;SDS011;1420;51.324;12.344;2022-08-04T10:40:20;29.84;;;26.94;;
2824;SDS011;1420;51.324;12.344;2022-08-04T10:42:57;26.40;;;23.12;;
2824;SDS011;1420;51.324;12.344;2022-08-04T10:45:27;31.38;;;28.42;;
2824;SDS011;1420;51.324;12.344;2022-08-04T10:48:11;44.64;;;41.06;;
2824;SDS011;1420;51.324;12.344;2022-08-04T10:50:37;32.06;;;28.98;;
2824;SDS011;1420;51.324;12.344;2022-08-04T10:53:06;27.20;;;24.46;;
2824;SDS011;1420;51.324;12.344;2022-08-04T10:55:34;20.50;;;14.86;;
2824;SDS011;1420;51.324;12.344;2022-08-04T10:58:03;30.40;;;27.46;;
2824;SDS011;1420;51.324;12.344;2022-08-04T11:00:28;39.62;;;36.28;;
2824;SDS011;1420;51.324;12.344;2022-08-04T11:03:12;30.76;;;27.52;;
2824;SDS011;1420;51.324;12.344;2022-08-04T11:05:29;22.52;;;17.82;;
2824;SDS011;1420;51.324;12.344;2022-08-04T11:08:00;23.76;;;20.64;;
2824;SDS011;1420;51.324;12.344;2022-08-04T11:10:27;35.12;;;32.08;;
2824;SDS011;1420;51.324;12.344;2022-08-04T11:12:55;29.36;;;26.56;;
2824;SDS011;1420;51.324;12.344;2022-08-04T11:15:21;26.24;;;23.56;;
2824;SDS011;1420;51.324;12.344;2022-08-04T11:17:51;29.02;;;26.28;;
2824;SDS011;1420;51.324;12.344;2022-08-04T11:20:22;24.20;;;19.96;;
2824;SDS011;1420;51.324;12.344;2022-08-04T11:23:04;28.06;;;25.26;;
2824;SDS011;1420;51.324;12.344;2022-08-04T11:25:41;27.58;;;24.76;;
2824;SDS011;1420;51.324;12.344;2022-08-04T11:28:10;36.60;;;33.40;;
2824;SDS011;1420;51.324;12.344;2022-08-04T11:30:41;31.48;;;28.48;;
2824;SDS011;1420;51.324;12.344;2022-08-04T11:33:12;28.78;;;25.74;;
2824;SDS011;1420;51.324;12.344;2022-08-04T11:35:43;30.98;;;27.98;;
2824;SDS011;1420;51.324;12.344;2022-08-04T11:38:10;30.10;;;27.24;;
2824;SDS011;1420;51.324;12.344;2022-08-04T11:40:36;38.96;;;35.56;;
2824;SDS011;1420;51.324;12.344;2022-08-04T11:43:05;34.28;;;31.18;;
2824;SDS011;1420;51.324;12.344;2022-08-04T11:45:32;35.78;;;32.68;;
2824;SDS011;1420;51.324;12.344;2022-08-04T11:48:00;35.92;;;32.82;;
2824;SDS011;1420;51.324;12.344;2022-08-04T11:50:33;47.26;;;43.72;;
2824;SDS011;1420;51.324;12.344;2022-08-04T11:53:00;52.84;;;49.02;;
2824;SDS011;1420;51.324;12.344;2022-08-04T11:55:27;47.68;;;43.88;;
2824;SDS011;1420;51.324;12.344;2022-08-04T11:57:55;50.52;;;46.72;;
2824;SDS011;1420;51.324;12.344;2022-08-04T12:00:24;45.00;;;41.30;;
2824;SDS011;1420;51.324;12.344;2022-08-04T12:05:29;39.82;;;36.30;;
2824;SDS011;1420;51.324;12.344;2022-08-04T12:10:35;46.50;;;42.80;;
2824;SDS011;1420;51.324;12.344;2022-08-04T12:13:05;33.32;;;30.12;;
2824;SDS011;1420;51.324;12.344;2022-08-04T12:15:34;36.26;;;33.04;;
2824;SDS011;1420;51.324;12.344;2022-08-04T12:20:46;40.56;;;36.88;;
2824;SDS011;1420;51.324;12.344;2022-08-04T12:23:15;47.74;;;43.88;;
2824;SDS011;1420;51.324;12.344;2022-08-04T12:25:43;35.58;;;32.28;;
2824;SDS011;1420;51.324;12.344;2022-08-04T12:28:11;37.30;;;34.00;;
2824;SDS011;1420;51.324;12.344;2022-08-04T12:30:39;41.36;;;37.78;;
2824;SDS011;1420;51.324;12.344;2022-08-04T12:33:09;44.24;;;40.32;;
2824;SDS011;1420;51.324;12.344;2022-08-04T12:35:34;42.76;;;39.16;;
2824;SDS011;1420;51.324;12.344;2022-08-04T12:38:04;43.78;;;40.08;;
2824;SDS011;1420;51.324;12.344;2022-08-04T12:41:04;40.64;;;37.08;;
2824;SDS011;1420;51.324;12.344;2022-08-04T12:43:19;40.24;;;36.72;;
2824;SDS011;1420;51.324;12.344;2022-08-04T12:45:48;43.34;;;39.86;;
2824;SDS011;1420;51.324;12.344;2022-08-04T12:48:16;49.12;;;45.36;;
2824;SDS011;1420;51.324;12.344;2022-08-04T12:50:46;47.30;;;43.30;;
2824;SDS011;1420;51.324;12.344;2022-08-04T12:53:12;47.74;;;43.90;;
2824;SDS011;1420;51.324;12.344;2022-08-04T12:55:43;53.84;;;49.74;;
2824;SDS011;1420;51.324;12.344;2022-08-04T12:58:11;52.82;;;48.74;;
2824;SDS011;1420;51.324;12.344;2022-08-04T13:00:38;52.92;;;48.72;;
2824;SDS011;1420;51.324;12.344;2022-08-04T13:03:08;49.60;;;45.64;;
2824;SDS011;1420;51.324;12.344;2022-08-04T13:05:35;47.34;;;43.56;;
2824;SDS011;1420;51.324;12.344;2022-08-04T13:08:02;45.78;;;42.06;;
2824;SDS011;1420;51.324;12.344;2022-08-04T13:10:30;51.30;;;47.38;;
2824;SDS011;1420;51.324;12.344;2022-08-04T13:12:58;51.74;;;47.72;;
2824;SDS011;1420;51.324;12.344;2022-08-04T13:15:26;56.70;;;52.38;;
2824;SDS011;1420;51.324;12.344;2022-08-04T13:17:57;50.92;;;47.02;;
2824;SDS011;1420;51.324;12.344;2022-08-04T13:20:34;37.90;;;34.24;;
2824;SDS011;1420;51.324;12.344;2022-08-04T13:23:03;35.94;;;32.64;;
2824;SDS011;1420;51.324;12.344;2022-08-04T13:25:29;39.96;;;36.54;;
2824;SDS011;1420;51.324;12.344;2022-08-04T13:27:57;33.20;;;29.90;;
2824;SDS011;1420;51.324;12.344;2022-08-04T13:30:24;31.28;;;28.14;;
2824;SDS011;1420;51.324;12.344;2022-08-04T13:32:52;31.46;;;28.12;;
2824;SDS011;1420;51.324;12.344;2022-08-04T13:35:20;32.84;;;29.66;;
2824;SDS011;1420;51.324;12.344;2022-08-04T13:37:48;36.92;;;33.72;;
2824;SDS011;1420;51.324;12.344;2022-08-04T13:40:15;37.48;;;34.24;;
2824;SDS011;1420;51.324;12.344;2022-08-04T13:42:45;34.26;;;31.00;;
2824;SDS011;1420;51.324;12.344;2022-08-04T13:45:11;31.32;;;28.30;;
2824;SDS011;1420;51.324;12.344;2022-08-04T13:47:39;34.64;;;31.54;;
2824;SDS011;1420;51.324;12.344;2022-08-04T13:50:11;27.42;;;24.52;;
2824;SDS011;1420;51.324;12.344;2022-08-04T13:52:39;34.58;;;31.14;;
2824;SDS011;1420;51.324;12.344;2022-08-04T13:55:07;34.00;;;30.82;;
2824;SDS011;1420;51.324;12.344;2022-08-04T13:57:35;37.16;;;33.84;;
2824;SDS011;1420;51.324;12.344;2022-08-04T14:00:05;36.52;;;33.14;;
2824;SDS011;1420;51.324;12.344;2022-08-04T14:05:08;31.86;;;28.76;;
2824;SDS011;1420;51.324;12.344;2022-08-04T14:07:39;35.96;;;32.76;;
2824;SDS011;1420;51.324;12.344;2022-08-04T14:10:08;28.78;;;25.88;;
2824;SDS011;1420;51.324;12.344;2022-08-04T14:12:29;29.80;;;26.68;;
2824;SDS011;1420;51.324;12.344;2022-08-04T14:14:56;30.56;;;27.48;;
2824;SDS011;1420;51.324;12.344;2022-08-04T14:17:24;28.84;;;25.94;;
2824;SDS011;1420;51.324;12.344;2022-08-04T14:19:56;31.36;;;28.26;;
2824;SDS011;1420;51.324;12.344;2022-08-04T14:22:33;26.68;;;23.04;;
2824;SDS011;1420;51.324;12.344;2022-08-04T14:25:06;26.80;;;24.00;;
2824;SDS011;1420;51.324;12.344;2022-08-04T14:27:42;30.28;;;26.38;;
2824;SDS011;1420;51.324;12.344;2022-08-04T14:32:53;30.50;;;27.30;;
2824;SDS011;1420;51.324;12.344;2022-08-04T14:35:20;26.28;;;23.44;;
2824;SDS011;1420;51.324;12.344;2022-08-04T14:37:53;37.68;;;34.34;;
2824;SDS011;1420;51.324;12.344;2022-08-04T14:40:23;28.54;;;25.52;;
2824;SDS011;1420;51.324;12.344;2022-08-04T14:43:06;34.44;;;31.10;;
2824;SDS011;1420;51.324;12.344;2022-08-04T14:45:37;30.10;;;27.10;;
2824;SDS011;1420;51.324;12.344;2022-08-04T14:48:06;31.50;;;28.56;;
2824;SDS011;1420;51.324;12.344;2022-08-04T14:50:34;32.18;;;28.94;;
2824;SDS011;1420;51.324;12.344;2022-08-04T14:53:20;44.02;;;40.12;;
2824;SDS011;1420;51.324;12.344;2022-08-04T14:55:48;34.34;;;30.96;;
2824;SDS011;1420;51.324;12.344;2022-08-04T14:58:19;40.44;;;36.84;;
2824;SDS011;1420;51.324;12.344;2022-08-04T15:00:46;38.18;;;34.80;;
2824;SDS011;1420;51.324;12.344;2022-08-04T15:03:14;38.58;;;35.20;;
2824;SDS011;1420;51.324;12.344;2022-08-04T15:05:42;37.46;;;34.08;;
2824;SDS011;1420;51.324;12.344;2022-08-04T15:08:09;34.06;;;30.76;;
2824;SDS011;1420;51.324;12.344;2022-08-04T15:10:36;31.98;;;28.94;;
2824;SDS011;1420;51.324;12.344;2022-08-04T15:13:05;25.82;;;23.20;;
2824;SDS011;1420;51.324;12.344;2022-08-04T15:15:31;29.04;;;26.16;;
2824;SDS011;1420;51.324;12.344;2022-08-04T15:17:58;27.18;;;22.12;;
2824;SDS011;1420;51.324;12.344;2022-08-04T15:20:26;27.94;;;25.18;;
2824;SDS011;1420;51.324;12.344;2022-08-04T15:22:53;24.58;;;19.74;;
2824;SDS011;1420;51.324;12.344;2022-08-04T15:25:21;30.78;;;27.80;;
2824;SDS011;1420;51.324;12.344;2022-08-04T15:27:48;29.12;;;26.22;;
2824;SDS011;1420;51.324;12.344;2022-08-04T15:30:15;26.02;;;21.66;;
2824;SDS011;1420;51.324;12.344;2022-08-04T15:32:51;26.98;;;24.18;;
2824;SDS011;1420;51.324;12.344;2022-08-04T15:35:20;24.72;;;20.70;;
2824;SDS011;1420;51.324;12.344;2022-08-04T15:38:02;26.90;;;24.10;;
2824;SDS011;1420;51.324;12.344;2022-08-04T15:40:34;25.44;;;20.50;;
2824;SDS011;1420;51.324;12.344;2022-08-04T15:43:04;25.48;;;22.26;;
2824;SDS011;1420;51.324;12.344;2022-08-04T15:45:47;26.62;;;23.92;;
2824;SDS011;1420;51.324;12.344;2022-08-04T15:48:22;24.06;;;19.66;;
2824;SDS011;1420;51.324;12.344;2022-08-04T15:50:59;24.68;;;20.54;;
2824;SDS011;1420;51.324;12.344;2022-08-04T15:53:27;33.76;;;30.66;;
2824;SDS011;1420;51.324;12.344;2022-08-04T15:55:54;34.74;;;31.54;;
2824;SDS011;1420;51.324;12.344;2022-08-04T15:58:22;25.08;;;22.02;;
2824;SDS011;1420;51.324;12.344;2022-08-04T16:03:40;22.80;;;19.42;;
2824;SDS011;1420;51.324;12.344;2022-08-04T16:09:03;23.46;;;19.60;;
2824;SDS011;1420;51.324;12.344;2022-08-04T16:14:07;26.16;;;23.22;;
2824;SDS011;1420;51.324;12.344;2022-08-04T16:19:24;26.50;;;20.76;;
2824;SDS011;1420;51.324;12.344;2022-08-04T16:21:50;24.68;;;19.70;;
2824;SDS011;1420;51.324;12.344;2022-08-04T16:24:17;24.26;;;21.70;;
2824;SDS011;1420;51.324;12.344;2022-08-04T16:26:45;25.72;;;21.82;;
2824;SDS011;1420;51.324;12.344;2022-08-04T16:32:06;24.54;;;19.90;;
2824;SDS011;1420;51.324;12.344;2022-08-04T16:34:34;23.62;;;19.78;;
2824;SDS011;1420;51.324;12.344;2022-08-04T16:37:03;24.82;;;20.58;;
2824;SDS011;1420;51.324;12.344;2022-08-04T16:39:29;24.84;;;21.60;;